Aviation Digital Data Service (ADDS)

Output produced by METARs form (0224 UTC 25 April 2014)
found at http://aviationweather.gov/adds/metars/
 
KMBS 242335Z 2500/2524 13010G18KT P6SM SCT080 BKN110 
     FM250100 11009KT P6SM BKN080 
     FM251300 09007KT 5SM -RA BKN050 OVC100 
     FM251500 07008KT 5SM -RA BKN020 OVC030 
     FM251800 32012KT P6SM SCT025 BKN035